createdAt,value
2017-08-08T05:31:53.149Z,1872
2017-08-08T05:32:18.605Z,1888
2017-08-08T05:32:44.031Z,1908
2017-08-08T05:33:09.505Z,1936
2017-08-08T05:33:34.973Z,1964
2017-08-08T05:34:00.441Z,2004
2017-08-08T05:34:25.905Z,2052
2017-08-08T05:34:51.359Z,2108
2017-08-08T05:35:16.833Z,2176
2017-08-08T05:35:42.294Z,2236
2017-08-08T05:36:07.779Z,2296
2017-08-08T05:36:33.269Z,2348
2017-08-08T05:36:58.723Z,2396
2017-08-08T05:37:24.219Z,2448
2017-08-08T05:37:49.634Z,2480
2017-08-08T05:38:15.075Z,2488
2017-08-08T05:38:40.538Z,2484
2017-08-08T05:39:06.010Z,2484
2017-08-08T05:39:31.464Z,2508
2017-08-08T05:39:56.949Z,2528
2017-08-08T05:40:22.359Z,2548
2017-08-08T05:40:47.843Z,2568
2017-08-08T05:41:13.322Z,2588
2017-08-08T05:41:38.802Z,2624
2017-08-08T05:42:04.250Z,2664
2017-08-08T05:42:29.708Z,2704
2017-08-08T05:42:55.193Z,2748
2017-08-08T05:43:20.649Z,2772
2017-08-08T05:43:46.130Z,2772
2017-08-08T05:44:11.608Z,2768
2017-08-08T05:44:37.025Z,2748
2017-08-08T05:45:02.508Z,2732
2017-08-08T05:45:27.953Z,2712
2017-08-08T05:45:53.425Z,2680
2017-08-08T05:46:18.863Z,2656
2017-08-08T05:47:37.816Z,2624
2017-08-08T05:48:03.257Z,2632
2017-08-08T05:48:28.746Z,2628
2017-08-08T05:48:54.195Z,2644
2017-08-08T05:49:19.655Z,2656
2017-08-08T05:49:45.114Z,2672
2017-08-08T05:50:10.597Z,2676
2017-08-08T05:50:36.014Z,2660
2017-08-08T05:51:01.485Z,2648
2017-08-08T05:51:26.953Z,2620
2017-08-08T05:51:52.402Z,2592
2017-08-08T05:52:17.866Z,2576
2017-08-08T05:52:43.343Z,2552
2017-08-08T05:53:08.820Z,2508
2017-08-08T05:53:34.282Z,2480
2017-08-08T05:53:59.719Z,2448
2017-08-08T05:54:25.205Z,2412
2017-08-08T05:54:50.655Z,2368
2017-08-08T05:55:16.121Z,2340
2017-08-08T05:55:41.552Z,2352
2017-08-08T05:56:07.060Z,2392
2017-08-08T05:56:32.509Z,2444
2017-08-08T05:56:58.005Z,2500
2017-08-08T05:57:23.450Z,2552
2017-08-08T05:57:48.961Z,2604
2017-08-08T05:58:14.380Z,2664
2017-08-08T05:58:39.824Z,2692
2017-08-08T05:59:05.245Z,2716
2017-08-08T05:59:30.769Z,2756
2017-08-08T05:59:56.243Z,2784
2017-08-08T06:00:21.703Z,2784
2017-08-08T06:00:47.175Z,2760
2017-08-08T06:01:12.636Z,2732
2017-08-08T06:01:38.141Z,2688
2017-08-08T06:02:03.554Z,2620
2017-08-08T06:02:29.034Z,2544
2017-08-08T06:02:54.469Z,2436
2017-08-08T06:03:19.910Z,2344
2017-08-08T06:03:45.411Z,2272
2017-08-08T06:04:10.878Z,2220
2017-08-08T06:04:36.324Z,2196
2017-08-08T06:05:01.788Z,2196
2017-08-08T06:05:27.208Z,2204
2017-08-08T06:05:52.659Z,2200
2017-08-08T06:06:18.105Z,2192
2017-08-08T06:06:43.567Z,2192
2017-08-08T06:07:09.017Z,2196
2017-08-08T06:07:34.491Z,2168
2017-08-08T06:07:59.980Z,2124
2017-08-08T06:08:25.413Z,2076
2017-08-08T06:08:50.893Z,2024
2017-08-08T06:09:16.381Z,1976
2017-08-08T06:09:41.811Z,1932
2017-08-08T06:10:07.297Z,1900
2017-08-08T06:10:32.784Z,1892
2017-08-08T06:10:58.251Z,1940
2017-08-08T06:11:23.673Z,2016
2017-08-08T06:11:49.137Z,2096
2017-08-08T06:12:14.621Z,2176
2017-08-08T06:12:40.082Z,2288
2017-08-08T06:13:05.591Z,2376
2017-08-08T06:13:31.069Z,2448
2017-08-08T06:13:56.552Z,2540
2017-08-08T06:14:21.972Z,2620
2017-08-08T06:14:47.479Z,2644
2017-08-08T06:15:12.923Z,2664
2017-08-08T06:15:38.368Z,2684
2017-08-08T06:16:03.880Z,2708
2017-08-08T06:16:29.354Z,2704
2017-08-08T06:17:43.156Z,2528
2017-08-08T06:18:08.607Z,2496
2017-08-08T06:18:34.069Z,2472
2017-08-08T06:18:59.548Z,2448
2017-08-08T06:19:25.001Z,2432
2017-08-08T06:19:50.447Z,2424
2017-08-08T06:20:15.925Z,2440
2017-08-08T06:20:41.403Z,2544
2017-08-08T06:21:06.837Z,2932
2017-08-08T06:21:32.346Z,2924
2017-08-08T06:21:57.829Z,3212
2017-08-08T06:22:23.315Z,4476
2017-08-08T06:22:48.753Z,4916
2017-08-08T06:23:14.208Z,4488
2017-08-08T06:23:39.683Z,4640
2017-08-08T06:24:05.181Z,4260
2017-08-08T06:24:30.622Z,4448
2017-08-08T06:24:56.125Z,4440
2017-08-08T06:25:21.561Z,4460
2017-08-08T06:25:47.029Z,4428
2017-08-08T06:26:12.533Z,4504
2017-08-08T06:26:38.010Z,4556
2017-08-08T06:27:03.465Z,4448
2017-08-08T06:27:28.947Z,4560
2017-08-08T06:27:54.406Z,4680
2017-08-08T06:28:19.864Z,4700
2017-08-08T06:28:45.306Z,4688
2017-08-08T06:29:10.800Z,4684
2017-08-08T06:29:36.311Z,4656
2017-08-08T06:30:01.774Z,4632
2017-08-08T06:30:27.235Z,4600
2017-08-08T06:30:52.686Z,4308
2017-08-08T06:31:18.179Z,4636
2017-08-08T06:31:43.614Z,4632
2017-08-08T06:32:09.077Z,4696
2017-08-08T06:32:34.542Z,4768
2017-08-08T06:33:00.001Z,4488
2017-08-08T06:33:25.638Z,4016
2017-08-08T06:33:51.056Z,4740
2017-08-08T06:34:16.519Z,3912
2017-08-08T06:34:41.982Z,4752
2017-08-08T06:35:07.414Z,4832
2017-08-08T06:35:32.868Z,4828
2017-08-08T06:35:58.330Z,4800
2017-08-08T06:36:23.753Z,4748
2017-08-08T06:36:49.246Z,4768
2017-08-08T06:37:14.689Z,4616
2017-08-08T06:37:40.147Z,4416
2017-08-08T06:38:05.667Z,4456
2017-08-08T06:38:31.136Z,4460
2017-08-08T06:38:56.660Z,4420
2017-08-08T06:39:22.081Z,4424
2017-08-08T06:39:47.557Z,4436
2017-08-08T06:40:13.075Z,4436
2017-08-08T06:40:38.525Z,4484
2017-08-08T06:41:04.013Z,4460
2017-08-08T06:41:29.460Z,4460
2017-08-08T06:41:54.926Z,4392
2017-08-08T06:42:20.350Z,4452
2017-08-08T06:42:45.819Z,4456
2017-08-08T06:44:04.663Z,4324
2017-08-08T06:44:30.127Z,4344
2017-08-08T06:44:55.615Z,4252
2017-08-08T06:45:21.090Z,4060
2017-08-08T06:45:46.584Z,4220
2017-08-08T06:46:12.071Z,4236
2017-08-08T06:46:37.589Z,3408
2017-08-08T06:47:03.069Z,3876
2017-08-08T06:47:28.534Z,3880
2017-08-08T06:47:53.989Z,3936
2017-08-08T06:48:19.466Z,3856
2017-08-08T06:48:44.958Z,3820
2017-08-08T06:49:10.405Z,3788
2017-08-08T06:49:35.888Z,3848
2017-08-08T06:50:59.821Z,3944
2017-08-08T06:51:25.293Z,4028
2017-08-08T06:51:50.747Z,4164
2017-08-08T06:52:16.214Z,4160
2017-08-08T06:52:41.668Z,4232
2017-08-08T06:53:07.135Z,4144
2017-08-08T06:53:32.655Z,4064
2017-08-08T06:53:58.117Z,3992
2017-08-08T06:54:23.598Z,4024
2017-08-08T06:54:49.072Z,3996
2017-08-08T06:55:14.538Z,4116
2017-08-08T06:55:39.997Z,4092
2017-08-08T06:56:05.490Z,4120
2017-08-08T06:56:31.001Z,4096
2017-08-08T06:56:56.467Z,4152
2017-08-08T06:57:21.997Z,4160
2017-08-08T06:57:47.475Z,4096
2017-08-08T06:58:12.952Z,4428
2017-08-08T06:58:38.437Z,4592
2017-08-08T06:59:03.936Z,4628
2017-08-08T06:59:29.428Z,4860
2017-08-08T06:59:54.906Z,4928
2017-08-08T07:00:20.399Z,5044
2017-08-08T07:00:45.887Z,5136
2017-08-08T07:02:04.789Z,5452
2017-08-08T07:02:30.229Z,5412
2017-08-08T07:02:55.687Z,5368
2017-08-08T07:03:21.165Z,5336
2017-08-08T07:03:46.600Z,5316
2017-08-08T07:04:12.063Z,5280
2017-08-08T07:04:37.561Z,5224
2017-08-08T07:05:03.003Z,5156
2017-08-08T07:05:28.497Z,5100
2017-08-08T07:05:53.994Z,5012
2017-08-08T07:06:19.488Z,4920
2017-08-08T07:06:45.029Z,4704
2017-08-08T07:07:10.549Z,4672
2017-08-08T07:07:36.082Z,4648
2017-08-08T07:08:01.579Z,4556
2017-08-08T07:08:27.047Z,4504
2017-08-08T07:08:52.580Z,4476
2017-08-08T07:09:18.072Z,4456
2017-08-08T07:09:43.550Z,4416
2017-08-08T07:10:09.023Z,4368
2017-08-08T07:10:34.517Z,4304
2017-08-08T07:11:00.027Z,4284
2017-08-08T07:11:25.493Z,4260
2017-08-08T07:11:50.982Z,4248
2017-08-08T07:12:16.457Z,4200
2017-08-08T07:12:41.950Z,4192
2017-08-08T07:13:07.438Z,4148
2017-08-08T07:13:32.921Z,4160
2017-08-08T07:13:58.354Z,4132
2017-08-08T07:14:23.846Z,4140
2017-08-08T07:14:49.299Z,4088
2017-08-08T07:15:14.789Z,4096
2017-08-08T07:15:40.259Z,4088
2017-08-08T07:16:05.767Z,4112
2017-08-08T07:16:31.258Z,4120
2017-08-08T07:16:56.721Z,4124
2017-08-08T07:17:22.187Z,4148
2017-08-08T07:17:47.623Z,4144
2017-08-08T07:18:13.093Z,4100
2017-08-08T07:18:38.542Z,4076
2017-08-08T07:19:04.013Z,4012
2017-08-08T07:19:29.492Z,3932
2017-08-08T07:19:54.908Z,3972
2017-08-08T07:20:20.361Z,3984
2017-08-08T07:20:45.842Z,3908
2017-08-08T07:21:11.308Z,3824
2017-08-08T07:21:36.824Z,3844
2017-08-08T07:22:02.277Z,3888
2017-08-08T07:22:27.752Z,3820
2017-08-08T07:22:53.211Z,3776
2017-08-08T07:23:18.742Z,3940
2017-08-08T07:24:42.760Z,4084
2017-08-08T07:25:08.224Z,4132
2017-08-08T07:25:33.684Z,4128
2017-08-08T07:25:59.157Z,4128
2017-08-08T07:26:24.679Z,4188
2017-08-08T07:26:50.166Z,4208
2017-08-08T07:27:15.630Z,4308
2017-08-08T07:27:41.098Z,4304
2017-08-08T07:28:06.576Z,4332
2017-08-08T07:28:32.112Z,4384
2017-08-08T07:28:57.569Z,4420
2017-08-08T07:29:23.026Z,4400
2017-08-08T07:29:48.515Z,4420
2017-08-08T07:30:14.015Z,4428
2017-08-08T07:30:39.514Z,4464
2017-08-08T07:31:04.986Z,4476
2017-08-08T07:31:30.499Z,4520
2017-08-08T07:31:55.963Z,4524
2017-08-08T07:32:21.425Z,4632
2017-08-08T07:32:46.976Z,4680
2017-08-08T07:33:12.523Z,4732
2017-08-08T07:33:37.994Z,4796
2017-08-08T07:34:03.484Z,4832
2017-08-08T07:34:28.997Z,4864
2017-08-08T07:34:54.493Z,4916
2017-08-08T07:35:19.965Z,4892
2017-08-08T07:35:45.477Z,4880
2017-08-08T07:36:10.946Z,4912
2017-08-08T07:36:36.427Z,4852
2017-08-08T07:37:01.883Z,4888
2017-08-08T07:38:15.682Z,3976
2017-08-08T07:38:41.110Z,4224
2017-08-08T07:39:06.586Z,3996
2017-08-08T07:39:32.097Z,4056
2017-08-08T07:39:57.576Z,4276
2017-08-08T07:40:23.080Z,4628
2017-08-08T07:40:48.557Z,5008
2017-08-08T07:41:14.026Z,5436
2017-08-08T07:41:39.517Z,5828
2017-08-08T07:42:05.034Z,6164
2017-08-08T07:42:30.510Z,6352
2017-08-08T07:42:55.990Z,6508
2017-08-08T07:43:21.522Z,6692
2017-08-08T07:43:46.982Z,6868
2017-08-08T07:44:12.474Z,7004
2017-08-08T07:44:37.957Z,6804
2017-08-08T07:45:03.403Z,6676
2017-08-08T07:45:28.850Z,6632
2017-08-08T07:45:54.287Z,6596
2017-08-08T07:46:19.792Z,6576
2017-08-08T07:46:45.294Z,6488
2017-08-08T07:47:10.791Z,6448
2017-08-08T07:47:36.286Z,6388
2017-08-08T07:48:01.741Z,6476
2017-08-08T07:48:27.174Z,6336
2017-08-08T07:48:52.659Z,6344
2017-08-08T07:49:18.111Z,6428
2017-08-08T07:49:43.611Z,6516
2017-08-08T07:50:09.059Z,6672
2017-08-08T07:50:34.478Z,6720
2017-08-08T07:50:59.966Z,6800
2017-08-08T07:51:25.449Z,6836
2017-08-08T07:51:50.962Z,6792
2017-08-08T07:52:16.449Z,6824
2017-08-08T07:52:41.907Z,6644
2017-08-08T07:53:07.394Z,6440
2017-08-08T07:53:32.840Z,6304
2017-08-08T07:53:58.332Z,6228
2017-08-08T07:54:23.838Z,6184
2017-08-08T07:54:49.287Z,6168
2017-08-08T07:55:14.738Z,6204
2017-08-08T07:55:40.227Z,6224
2017-08-08T07:56:05.692Z,6184
2017-08-08T07:56:31.187Z,6096
2017-08-08T07:56:56.636Z,6068
2017-08-08T07:57:22.097Z,6068
2017-08-08T07:57:47.573Z,6080
2017-08-08T07:58:13.074Z,6088
2017-08-08T07:58:38.547Z,6092
2017-08-08T07:59:03.981Z,6140
2017-08-08T07:59:29.462Z,6188
2017-08-08T07:59:54.940Z,6188
2017-08-08T08:00:20.450Z,6244
2017-08-08T08:00:45.896Z,6220
2017-08-08T08:01:11.356Z,6276
2017-08-08T08:01:36.841Z,6248
2017-08-08T08:02:02.264Z,6236
2017-08-08T08:02:27.740Z,6268
2017-08-08T08:02:53.180Z,6300
2017-08-08T08:04:17.195Z,6404
2017-08-08T08:04:42.659Z,6476
2017-08-08T08:05:08.145Z,6552
2017-08-08T08:05:33.690Z,6544
2017-08-08T08:05:59.148Z,6580
2017-08-08T08:06:24.632Z,6612
2017-08-08T08:06:50.127Z,6664
2017-08-08T08:07:15.590Z,6728
2017-08-08T08:07:41.090Z,6812
2017-08-08T08:08:06.615Z,6892
2017-08-08T08:09:25.526Z,6976
2017-08-08T08:09:50.977Z,6932
2017-08-08T08:10:16.482Z,6868
2017-08-08T08:10:41.957Z,6828
2017-08-08T08:11:07.420Z,6780
2017-08-08T08:11:32.896Z,6732
2017-08-08T08:11:58.338Z,6688
2017-08-08T08:12:23.823Z,6652
2017-08-08T08:12:49.300Z,6612
2017-08-08T08:13:14.792Z,6576
2017-08-08T08:13:40.279Z,6560
2017-08-08T08:14:05.838Z,6552
2017-08-08T08:14:31.306Z,6560
2017-08-08T08:14:56.794Z,6580
2017-08-08T08:15:22.280Z,6600
2017-08-08T08:15:47.791Z,6632
2017-08-08T08:16:13.248Z,6664
2017-08-08T08:16:38.721Z,6684
2017-08-08T08:17:04.220Z,6688
2017-08-08T08:17:29.687Z,6692
2017-08-08T08:17:55.171Z,6704
2017-08-08T08:18:20.631Z,6712
2017-08-08T08:18:46.118Z,6716
2017-08-08T08:19:11.635Z,6696
2017-08-08T08:19:37.099Z,6692
2017-08-08T08:20:02.601Z,6684
2017-08-08T08:21:16.378Z,6744
2017-08-08T08:21:41.838Z,6740
2017-08-08T08:22:07.308Z,6736
2017-08-08T08:22:32.808Z,6700
2017-08-08T08:22:58.258Z,6688
2017-08-08T08:23:23.734Z,6676
2017-08-08T08:23:49.192Z,6676
2017-08-08T08:24:14.667Z,6688
2017-08-08T08:24:40.096Z,6716
2017-08-08T08:25:05.593Z,6756
2017-08-08T08:25:31.062Z,6796
2017-08-08T08:25:56.552Z,6836
2017-08-08T08:26:22.009Z,6888
2017-08-08T08:26:47.497Z,6972
2017-08-08T08:27:12.965Z,7028
2017-08-08T08:27:38.476Z,7088
2017-08-08T08:28:03.968Z,7136
2017-08-08T08:28:29.471Z,7196
2017-08-08T08:28:54.944Z,7240
2017-08-08T08:29:20.423Z,7304
2017-08-08T08:29:45.928Z,7336
2017-08-08T08:30:11.396Z,7336
2017-08-08T08:30:36.872Z,7340
2017-08-08T08:31:02.376Z,7344
2017-08-08T08:31:27.828Z,7356
2017-08-08T08:31:53.327Z,7356
2017-08-08T08:32:18.760Z,7380
2017-08-08T08:32:44.261Z,7388
2017-08-08T08:33:52.992Z,7428
2017-08-08T08:34:18.468Z,7436
2017-08-08T08:34:43.954Z,7440
2017-08-08T08:35:09.450Z,7444
2017-08-08T08:35:34.902Z,7452
2017-08-08T08:36:00.415Z,7460
2017-08-08T08:36:25.885Z,7464
2017-08-08T08:36:51.379Z,7480
2017-08-08T08:37:16.825Z,7504
2017-08-08T08:37:42.291Z,7532
2017-08-08T08:38:07.794Z,7532
2017-08-08T08:38:33.254Z,7568
2017-08-08T08:38:58.719Z,7600
2017-08-08T08:39:24.209Z,7628
2017-08-08T08:39:49.672Z,7664
2017-08-08T08:40:15.116Z,7700
2017-08-08T08:40:40.595Z,7740
2017-08-08T08:41:06.098Z,7772
2017-08-08T08:41:31.595Z,7804
2017-08-08T08:41:57.056Z,7832
2017-08-08T08:42:22.513Z,7848
2017-08-08T08:42:47.947Z,7868
2017-08-08T08:43:13.423Z,7880
2017-08-08T08:43:38.892Z,7888
2017-08-08T08:44:04.348Z,7900
2017-08-08T08:44:29.805Z,7888
2017-08-08T08:44:55.299Z,7880
2017-08-08T08:45:20.775Z,7876
2017-08-08T08:45:46.231Z,7864
2017-08-08T08:46:11.714Z,7836
2017-08-08T08:46:37.218Z,7800
2017-08-08T08:47:02.636Z,7768
2017-08-08T08:47:28.140Z,7716
2017-08-08T08:47:53.593Z,7660
2017-08-08T08:48:19.030Z,7596
2017-08-08T08:48:44.511Z,7544
2017-08-08T08:49:09.929Z,7464
2017-08-08T08:49:35.375Z,7384
2017-08-08T08:50:00.850Z,7312
2017-08-08T08:50:26.308Z,7260
2017-08-08T08:50:51.780Z,7216
2017-08-08T08:51:17.242Z,7188
2017-08-08T08:51:42.707Z,7168
2017-08-08T08:52:08.215Z,7164
2017-08-08T08:52:33.687Z,7180
2017-08-08T08:52:59.164Z,7212
2017-08-08T08:53:24.610Z,7256
2017-08-08T08:53:50.051Z,7312
2017-08-08T08:54:15.515Z,7368
2017-08-08T08:54:40.996Z,7420
2017-08-08T08:55:06.479Z,7464
2017-08-08T08:55:31.970Z,7508
2017-08-08T08:55:57.462Z,7560
2017-08-08T08:56:22.980Z,7612
2017-08-08T08:56:48.425Z,7660
2017-08-08T08:57:13.909Z,7716
2017-08-08T08:57:39.338Z,7756
2017-08-08T08:58:04.825Z,7800
2017-08-08T08:58:30.294Z,7828
2017-08-08T08:58:55.759Z,7844
2017-08-08T08:59:21.240Z,7860
2017-08-08T08:59:46.715Z,7868
2017-08-08T09:00:12.181Z,7884
2017-08-08T09:00:37.659Z,7900
2017-08-08T09:01:03.141Z,7916
2017-08-08T09:01:28.627Z,7928
2017-08-08T09:01:54.104Z,7940
2017-08-08T09:02:19.552Z,7936
2017-08-08T09:02:45.014Z,7920
2017-08-08T09:03:10.467Z,7892
2017-08-08T09:03:35.934Z,7872
2017-08-08T09:04:01.420Z,7868
2017-08-08T09:04:26.847Z,7888
2017-08-08T09:04:52.331Z,7916
2017-08-08T09:05:17.803Z,7944
2017-08-08T09:05:43.289Z,7972
2017-08-08T09:06:08.751Z,7992
2017-08-08T09:06:34.254Z,8008
2017-08-08T09:06:59.718Z,8024
2017-08-08T09:07:25.183Z,8036
2017-08-08T09:07:50.635Z,8036
2017-08-08T09:08:16.139Z,8032
2017-08-08T09:08:41.576Z,8024
2017-08-08T09:09:07.053Z,8024
2017-08-08T09:09:32.496Z,8024
2017-08-08T09:09:57.996Z,8028
2017-08-08T09:10:23.457Z,8024
2017-08-08T09:10:48.905Z,8024
2017-08-08T09:11:14.371Z,8012
2017-08-08T09:11:39.841Z,8008
2017-08-08T09:12:05.346Z,8016
2017-08-08T09:12:30.830Z,8020
2017-08-08T09:12:56.335Z,8028
2017-08-08T09:13:21.782Z,8052
2017-08-08T09:13:47.241Z,8068
2017-08-08T09:14:12.762Z,8080
2017-08-08T09:14:38.179Z,8096
2017-08-08T09:15:03.661Z,8116
2017-08-08T09:15:29.163Z,8128
2017-08-08T09:15:54.633Z,8144
2017-08-08T09:16:20.101Z,8156
2017-08-08T09:16:45.611Z,8168
2017-08-08T09:17:11.105Z,8172
2017-08-08T09:17:36.561Z,8192
2017-08-08T09:18:02.003Z,8196
2017-08-08T09:18:27.505Z,8200
2017-08-08T09:18:52.969Z,8204
2017-08-08T09:19:18.436Z,8208
2017-08-08T09:19:43.909Z,8216
2017-08-08T09:20:09.365Z,8220
2017-08-08T09:20:34.829Z,8224
2017-08-08T09:21:00.303Z,8236
2017-08-08T09:21:25.767Z,8244
2017-08-08T09:21:51.245Z,8256
2017-08-08T09:22:16.703Z,8268
2017-08-08T09:22:42.167Z,8300
2017-08-08T09:23:07.663Z,8336
2017-08-08T09:23:33.118Z,8372
2017-08-08T09:23:58.604Z,8412
2017-08-08T09:24:24.076Z,8448
2017-08-08T09:24:49.548Z,8484
2017-08-08T09:25:15.003Z,8516
2017-08-08T09:25:40.470Z,8540
2017-08-08T09:26:05.978Z,8568
2017-08-08T09:26:31.451Z,8604
2017-08-08T09:26:56.976Z,8652
2017-08-08T09:27:22.460Z,8700
2017-08-08T09:27:47.903Z,8740
2017-08-08T09:28:13.336Z,8764
2017-08-08T09:28:38.847Z,8780
2017-08-08T09:29:04.313Z,8784
2017-08-08T09:29:29.826Z,8792
2017-08-08T09:29:55.230Z,8788
2017-08-08T09:30:20.766Z,8784
2017-08-08T09:30:46.265Z,8780
2017-08-08T09:31:11.713Z,8776
2017-08-08T09:31:37.208Z,8768
2017-08-08T09:32:02.682Z,8760
2017-08-08T09:32:28.149Z,8764
2017-08-08T09:32:53.620Z,8760
2017-08-08T09:33:19.106Z,8748
2017-08-08T09:33:44.592Z,8732
2017-08-08T09:34:10.068Z,8704
2017-08-08T09:34:35.541Z,8676
2017-08-08T09:35:01.019Z,8648
2017-08-08T09:35:26.509Z,8640
2017-08-08T09:35:51.968Z,8656
2017-08-08T09:36:17.430Z,8672
2017-08-08T09:36:42.887Z,8680
2017-08-08T09:37:08.399Z,8692
2017-08-08T09:37:33.860Z,8704
2017-08-08T09:37:59.321Z,8732
2017-08-08T09:38:24.785Z,8776
2017-08-08T09:38:50.243Z,8836
2017-08-08T09:39:15.737Z,8888
2017-08-08T09:39:41.233Z,8920
2017-08-08T09:40:06.702Z,8956
2017-08-08T09:40:32.146Z,9016
2017-08-08T09:40:57.659Z,9048
2017-08-08T09:41:23.139Z,9100
2017-08-08T09:41:48.600Z,9136
2017-08-08T09:43:07.499Z,9224
2017-08-08T09:43:32.974Z,9224
2017-08-08T09:43:58.413Z,9192
2017-08-08T09:44:23.891Z,9152
2017-08-08T09:44:49.345Z,9096
2017-08-08T09:45:14.834Z,9032
2017-08-08T09:45:40.335Z,8972
2017-08-08T09:46:05.815Z,8912
2017-08-08T09:46:31.282Z,8848
2017-08-08T09:46:56.715Z,8772
2017-08-08T09:47:22.214Z,8688
2017-08-08T09:47:47.744Z,8596
2017-08-08T09:48:13.189Z,8512
2017-08-08T09:48:38.687Z,8452
2017-08-08T09:49:04.183Z,8412
2017-08-08T09:49:29.677Z,8384
2017-08-08T09:49:55.145Z,8376
2017-08-08T09:50:20.646Z,8380
2017-08-08T09:50:46.076Z,8376
2017-08-08T09:51:11.553Z,8372
2017-08-08T09:51:37.052Z,8352
2017-08-08T09:52:02.584Z,8320
2017-08-08T09:52:28.056Z,8284
2017-08-08T09:52:53.587Z,8248
2017-08-08T09:53:19.046Z,8212
2017-08-08T09:53:44.525Z,8172
2017-08-08T09:54:09.966Z,8136
2017-08-08T09:54:35.408Z,8104
2017-08-08T09:55:00.882Z,8064
2017-08-08T09:55:26.369Z,8032
2017-08-08T09:55:51.845Z,8004
2017-08-08T09:56:17.314Z,7992
2017-08-08T09:56:42.775Z,7992
2017-08-08T09:57:08.266Z,7988
2017-08-08T09:57:33.742Z,7976
2017-08-08T09:57:59.193Z,7960
2017-08-08T09:58:24.656Z,7924
2017-08-08T09:58:50.082Z,7880
2017-08-08T09:59:15.528Z,7820
2017-08-08T09:59:40.988Z,7748
2017-08-08T10:00:06.475Z,7660
2017-08-08T10:00:31.922Z,7564
2017-08-08T10:01:45.745Z,7284
2017-08-08T10:02:11.233Z,7200
2017-08-08T10:02:36.727Z,7124
2017-08-08T10:03:02.181Z,7064
2017-08-08T10:03:27.704Z,7016
2017-08-08T10:03:53.124Z,6968
2017-08-08T10:04:18.596Z,6932
2017-08-08T10:04:44.056Z,6904
2017-08-08T10:05:09.543Z,6868
2017-08-08T10:05:35.038Z,6832
2017-08-08T10:06:00.520Z,6796
2017-08-08T10:06:26.008Z,6768
2017-08-08T10:06:51.539Z,6744
2017-08-08T10:07:16.993Z,6732
2017-08-08T10:07:42.485Z,6724
2017-08-08T10:08:07.983Z,6740
2017-08-08T10:08:33.453Z,6740
2017-08-08T10:08:58.957Z,6736
2017-08-08T10:09:24.365Z,6724
2017-08-08T10:09:49.816Z,6716
2017-08-08T10:10:15.292Z,6720
2017-08-08T10:10:40.779Z,6720
2017-08-08T10:11:06.240Z,6736
2017-08-08T10:11:31.725Z,6756
2017-08-08T10:11:57.212Z,6780
2017-08-08T10:12:22.697Z,6800
2017-08-08T10:12:48.157Z,6812
2017-08-08T10:13:13.671Z,6804
2017-08-08T10:13:39.200Z,6768
2017-08-08T10:14:04.685Z,6716
2017-08-08T10:14:30.157Z,6660
2017-08-08T10:14:55.633Z,6604
2017-08-08T10:15:21.114Z,6552
2017-08-08T10:15:46.545Z,6504
2017-08-08T10:16:12.048Z,6460
2017-08-08T10:16:37.488Z,6424
2017-08-08T10:17:02.963Z,6392
2017-08-08T10:17:28.469Z,6360
2017-08-08T10:17:53.923Z,6328
2017-08-08T10:18:19.407Z,6296
2017-08-08T10:18:44.885Z,6260
2017-08-08T10:19:10.322Z,6216
2017-08-08T10:19:35.849Z,6180
2017-08-08T10:20:01.307Z,6152
2017-08-08T10:21:10.046Z,6052
2017-08-08T10:21:35.502Z,6016
2017-08-08T10:22:00.972Z,5976
2017-08-08T10:22:26.426Z,5932
2017-08-08T10:22:51.903Z,5880
2017-08-08T10:23:17.388Z,5828
2017-08-08T10:23:42.889Z,5772
2017-08-08T10:24:08.356Z,5720
2017-08-08T10:24:33.819Z,5676
2017-08-08T10:24:59.316Z,5648
2017-08-08T10:25:24.818Z,5648
2017-08-08T10:25:50.280Z,5700
2017-08-08T10:26:15.736Z,5788
2017-08-08T10:27:34.628Z,6148
2017-08-08T10:28:00.068Z,6272
2017-08-08T10:28:25.517Z,6412
2017-08-08T10:28:51.021Z,6524
2017-08-08T10:29:16.541Z,6584
2017-08-08T10:29:42.038Z,6608
2017-08-08T10:30:07.525Z,6616
2017-08-08T10:30:32.988Z,6608
2017-08-08T10:30:58.490Z,6588
2017-08-08T10:31:23.979Z,6568
2017-08-08T10:31:49.457Z,6536
2017-08-08T10:32:14.918Z,6504
2017-08-08T10:32:40.375Z,6464
2017-08-08T10:33:05.883Z,6416
2017-08-08T10:33:31.375Z,6336
2017-08-08T10:33:56.910Z,6268
2017-08-08T10:34:22.365Z,6192
2017-08-08T10:34:47.829Z,6112
2017-08-08T10:35:13.307Z,6032
2017-08-08T10:35:38.786Z,5976
2017-08-08T10:36:04.239Z,5932
2017-08-08T10:36:29.707Z,5908
2017-08-08T10:36:55.180Z,5908
2017-08-08T10:37:20.647Z,5876
2017-08-08T10:37:46.076Z,5768
2017-08-08T10:38:11.544Z,5636
2017-08-08T10:38:37.028Z,5588
2017-08-08T10:39:02.514Z,5532
2017-08-08T10:39:28.004Z,5536
2017-08-08T10:39:53.478Z,5552
2017-08-08T10:40:18.953Z,5596
2017-08-08T10:40:44.424Z,5572
2017-08-08T10:41:09.937Z,5488
2017-08-08T10:41:35.434Z,5428
2017-08-08T10:42:00.898Z,5364
2017-08-08T10:42:26.389Z,5336
2017-08-08T10:42:51.877Z,5368
2017-08-08T10:43:17.353Z,5408
2017-08-08T10:43:42.830Z,5424
2017-08-08T10:44:08.327Z,5460
2017-08-08T10:44:33.804Z,5504
2017-08-08T10:44:59.261Z,5576
2017-08-08T10:45:24.726Z,5680
2017-08-08T10:45:50.241Z,5788
2017-08-08T10:46:15.755Z,5896
2017-08-08T10:46:41.199Z,5988
2017-08-08T10:47:06.743Z,6052
2017-08-08T10:47:32.271Z,6108
2017-08-08T10:47:57.703Z,6152
2017-08-08T10:48:23.296Z,6176
2017-08-08T10:48:48.793Z,6200
2017-08-08T10:49:14.272Z,6216
2017-08-08T10:49:39.729Z,6232
2017-08-08T10:50:05.249Z,6268
2017-08-08T10:50:30.647Z,6320
2017-08-08T10:50:56.121Z,6376
2017-08-08T10:51:21.613Z,6432
2017-08-08T10:51:47.097Z,6484
2017-08-08T10:52:12.549Z,6548
2017-08-08T10:52:38.038Z,6600
2017-08-08T10:53:03.486Z,6656
2017-08-08T10:53:28.952Z,6688
2017-08-08T10:53:54.472Z,6704
2017-08-08T10:54:19.946Z,6692
2017-08-08T10:54:45.425Z,6664
2017-08-08T10:55:10.922Z,6624
2017-08-08T10:55:36.392Z,6576
2017-08-08T10:56:01.913Z,6516
2017-08-08T10:56:27.326Z,6440
2017-08-08T10:56:52.839Z,6356
2017-08-08T10:57:18.276Z,6260
2017-08-08T10:57:43.774Z,6156
2017-08-08T10:58:09.246Z,6020
2017-08-08T10:58:34.704Z,5816
2017-08-08T10:59:00.225Z,5568
2017-08-08T10:59:25.688Z,5396
2017-08-08T10:59:51.171Z,5288
2017-08-08T11:00:16.623Z,5204
2017-08-08T11:00:42.099Z,5132
2017-08-08T11:01:07.606Z,5096
2017-08-08T11:01:33.122Z,5104
2017-08-08T11:01:58.545Z,5140
2017-08-08T11:02:24.004Z,5176
2017-08-08T11:02:49.488Z,5244
2017-08-08T11:03:14.961Z,5352
2017-08-08T11:03:40.475Z,5408
2017-08-08T11:04:05.869Z,5408
2017-08-08T11:04:31.375Z,5412
2017-08-08T11:04:56.876Z,5380
2017-08-08T11:05:22.362Z,5348
2017-08-08T11:05:47.819Z,5228
2017-08-08T11:06:13.295Z,5128
2017-08-08T11:06:38.783Z,5048
2017-08-08T11:07:04.264Z,5004
2017-08-08T11:07:29.750Z,4944
2017-08-08T11:07:55.205Z,4840
2017-08-08T11:08:20.653Z,4804
2017-08-08T11:08:46.130Z,4876
2017-08-08T11:09:11.588Z,4960
2017-08-08T11:09:37.040Z,5112
2017-08-08T11:10:02.524Z,5216
2017-08-08T11:10:27.977Z,5308
2017-08-08T11:10:53.475Z,5360
2017-08-08T11:11:18.959Z,5380
2017-08-08T11:11:44.413Z,5392
2017-08-08T11:12:09.884Z,5376
2017-08-08T11:12:35.344Z,5344
2017-08-08T11:13:00.808Z,5280
2017-08-08T11:13:26.248Z,5188
2017-08-08T11:13:51.754Z,5072
2017-08-08T11:14:17.210Z,4976
2017-08-08T11:14:42.657Z,4888
2017-08-08T11:15:08.117Z,4804
2017-08-08T11:15:33.590Z,4704
2017-08-08T11:15:59.053Z,4596
2017-08-08T11:16:24.498Z,4492
2017-08-08T11:16:50.022Z,4412
2017-08-08T11:17:15.483Z,4356
2017-08-08T11:17:40.912Z,4328
2017-08-08T11:18:06.369Z,4308
2017-08-08T11:18:31.796Z,4308
2017-08-08T11:18:57.251Z,4312
2017-08-08T11:19:22.736Z,4316
2017-08-08T11:19:48.200Z,4304
2017-08-08T11:20:13.703Z,4268
2017-08-08T11:20:39.167Z,4220
2017-08-08T11:21:04.645Z,4180
2017-08-08T11:21:30.111Z,4136
2017-08-08T11:21:55.640Z,4080
2017-08-08T11:22:21.143Z,4016
2017-08-08T11:22:46.595Z,3964
2017-08-08T11:23:12.098Z,3916
2017-08-08T11:23:37.556Z,3860